Time;durP1;ratioP1;P1;durP2;ratioP2;P2;SDS_P1;SDS_P2;PMS_P1;PMS_P2;Temp;Humidity;BMP_temperature;BMP_pressure;BME280_temperature;BME280_humidity;BME280_pressure;Samples;Min_cycle;Max_cycle;Signal;HPM_P1;HPM_P2
2022/11/04 00:02:17;;;;;;;2.40;0.90;;;16.30;97.30;;;;;;10494876;28;20048;-26
2022/11/04 00:12:40;;;;;;;1.00;0.38;;;18.10;93.10;;;;;;10486994;28;20048;-28
2022/11/04 00:17:42;;;;;;;1.30;0.40;;;18.10;93.40;;;;;;10482714;28;20049;-26
2022/11/04 00:33:31;;;;;;;3.35;0.52;;;19.40;87.30;;;;;;10489153;28;20052;-27
2022/11/04 00:38:34;;;;;;;2.42;0.90;;;19.70;84.60;;;;;;10489306;28;20105;-29
2022/11/04 00:43:36;;;;;;;2.55;0.47;;;19.90;83.10;;;;;;10482825;28;20070;-28
2022/11/04 00:48:38;;;;;;;2.30;0.50;;;19.90;83.20;;;;;;10499508;28;20136;-28
2022/11/04 00:53:41;;;;;;;2.58;0.40;;;19.40;86.80;;;;;;10488283;28;20071;-31
2022/11/04 00:58:43;;;;;;;2.90;0.50;;;19.90;83.30;;;;;;10501450;28;20741;-28
2022/11/04 01:03:45;;;;;;;1.45;0.30;;;19.50;86.10;;;;;;10501070;28;20105;-26
2022/11/04 01:08:49;;;;;;;0.98;0.40;;;19.90;82.80;;;;;;10507100;28;20049;-27
2022/11/04 01:13:51;;;;;;;0.32;0.30;;;19.20;87.10;;;;;;10496145;28;20511;-29
2022/11/04 01:18:53;;;;;;;1.40;0.30;;;19.40;85.80;;;;;;10510043;28;20052;-27
2022/11/04 01:23:57;;;;;;;1.48;0.30;;;19.90;82.70;;;;;;10495374;28;20049;-26
2022/11/04 01:28:59;;;;;;;0.52;0.30;;;19.40;86.40;;;;;;10500074;28;20123;-24
2022/11/04 01:34:01;;;;;;;;;;;19.80;83.10;;;;;;10493275;28;20129;-24
2022/11/04 01:39:04;;;;;;;1.33;0.30;;;19.90;82.10;;;;;;10500149;28;20039;-26
2022/11/04 01:44:39;;;;;;;1.58;0.35;;;20.00;81.70;;;;;;10505063;28;20520;-26
2022/11/04 01:49:42;;;;;;;1.63;0.50;;;20.00;81.60;;;;;;10487779;28;20480;-26
2022/11/04 01:54:48;;;;;;;3.55;0.60;;;20.00;81.70;;;;;;10501655;28;20044;-27
2022/11/04 01:59:50;;;;;;;0.90;0.38;;;20.00;81.30;;;;;;10496612;28;20048;-26
2022/11/04 02:04:52;;;;;;;3.47;0.70;;;19.90;81.80;;;;;;10481981;28;20052;-27
2022/11/04 02:09:55;;;;;;;1.15;0.40;;;19.70;77.40;;;;;;10486635;28;20044;-26
2022/11/04 02:14:58;;;;;;;1.55;0.45;;;19.90;82.20;;;;;;10495263;28;20045;-26
2022/11/04 02:20:14;;;;;;;3.55;0.73;;;19.40;85.70;;;;;;10492254;28;20060;-23
2022/11/04 02:25:37;;;;;;;3.30;0.82;;;19.60;81.70;;;;;;10485161;28;20037;-26
2022/11/04 02:30:46;;;;;;;3.85;1.77;;;19.10;86.00;;;;;;10492427;28;20113;-26
2022/11/04 02:35:58;;;;;;;1.80;0.32;;;18.90;85.70;;;;;;10490352;28;20106;-27
2022/11/04 02:41:07;;;;;;;0.60;0.45;;;19.20;86.10;;;;;;10499529;28;20047;-27
2022/11/04 02:46:16;;;;;;;2.03;0.93;;;19.40;85.10;;;;;;10495980;28;20076;-27
2022/11/04 02:51:21;;;;;;;2.28;0.60;;;19.10;86.20;;;;;;10486747;28;20059;-26
2022/11/04 02:56:25;;;;;;;0.77;0.47;;;19.00;87.80;;;;;;10485832;28;20056;-26
2022/11/04 03:01:34;;;;;;;1.60;0.40;;;19.40;84.40;;;;;;10490602;28;20093;-26
2022/11/04 03:06:38;;;;;;;1.52;0.50;;;19.50;83.70;;;;;;10483697;28;20131;-26
2022/11/04 03:11:43;;;;;;;5.68;0.47;;;19.50;83.70;;;;;;10490515;28;20048;-26
2022/11/04 03:16:50;;;;;;;3.08;0.65;;;19.70;82.10;;;;;;10493063;28;20139;-28
2022/11/04 03:21:55;;;;;;;3.95;0.60;;;19.70;81.70;;;;;;10492311;28;20094;-27
2022/11/04 03:27:01;;;;;;;1.17;0.40;;;19.70;81.50;;;;;;10490403;28;20048;-26
2022/11/04 03:32:14;;;;;;;2.33;0.50;;;19.80;81.30;;;;;;10494983;28;20504;-27
2022/11/04 03:37:16;;;;;;;1.05;0.47;;;19.70;81.40;;;;;;10498768;28;20036;-27
2022/11/04 03:42:20;;;;;;;2.65;0.50;;;19.80;81.20;;;;;;10508075;28;20044;-26
2022/11/04 03:47:26;;;;;;;1.70;0.63;;;19.80;81.20;;;;;;10492230;28;20053;-27
2022/11/04 03:52:28;;;;;;;1.00;0.47;;;19.80;81.00;;;;;;10505219;28;20056;-26
2022/11/04 03:57:38;;;;;;;1.45;0.60;;;19.70;81.30;;;;;;10512707;28;20053;-26
2022/11/04 04:02:51;;;;;;;4.00;0.63;;;19.20;85.10;;;;;;10505218;28;20102;-26
2022/11/04 04:08:00;;;;;;;3.13;1.02;;;19.40;82.20;;;;;;10512463;28;20053;-39
2022/11/04 04:13:07;;;;;;;2.45;0.63;;;19.60;81.50;;;;;;10495636;28;20056;-28
2022/11/04 04:18:14;;;;;;;1.48;0.50;;;19.60;81.70;;;;;;10488657;28;20044;-27
2022/11/04 04:28:41;;;;;;;3.55;1.17;;;19.60;81.90;;;;;;10502405;28;20040;-28
2022/11/04 04:33:44;;;;;;;1.92;0.80;;;19.40;82.00;;;;;;10485035;28;20134;-27
2022/11/04 04:49:36;;;;;;;1.35;0.90;;;19.20;84.30;;;;;;10491171;28;20087;-26
2022/11/04 04:54:38;;;;;;;2.35;0.68;;;19.10;85.10;;;;;;10489718;28;20646;-25
2022/11/04 04:59:40;;;;;;;0.50;0.40;;;19.40;82.50;;;;;;10496291;28;20127;-36
2022/11/04 05:04:43;;;;;;;2.95;0.77;;;19.50;81.50;;;;;;10503707;28;20163;-27
2022/11/04 05:09:45;;;;;;;2.08;0.60;;;19.50;81.40;;;;;;10498110;28;20071;-27
2022/11/04 05:14:46;;;;;;;1.58;0.73;;;19.60;81.10;;;;;;10504512;28;20062;-26
2022/11/04 05:19:50;;;;;;;2.05;0.70;;;19.60;81.30;;;;;;10489726;28;20045;-27
2022/11/04 05:24:52;;;;;;;1.90;0.70;;;19.60;81.00;;;;;;10478724;28;20040;-28
2022/11/04 05:29:54;;;;;;;0.50;0.30;;;19.60;80.70;;;;;;10466638;28;20045;-26
2022/11/04 05:34:57;;;;;;;1.10;0.68;;;19.60;80.90;;;;;;10472458;28;20064;-26
2022/11/04 05:39:59;;;;;;;1.52;0.60;;;19.60;80.70;;;;;;10469211;28;20049;-26
2022/11/04 05:45:00;;;;;;;2.47;0.82;;;19.60;80.60;;;;;;10471964;28;20432;-29
2022/11/04 05:50:05;;;;;;;1.70;0.68;;;19.70;80.20;;;;;;10465803;28;20048;-26
2022/11/04 05:55:07;;;;;;;1.55;0.80;;;19.70;80.20;;;;;;10502108;28;20498;-28
2022/11/04 06:00:11;;;;;;;1.92;0.88;;;19.70;80.30;;;;;;10496507;28;20059;-28
2022/11/04 06:05:14;;;;;;;4.53;1.58;;;19.70;80.20;;;;;;10490024;28;20402;-27
2022/11/04 06:10:16;;;;;;;2.25;0.82;;;19.80;80.40;;;;;;10479971;28;20041;-28
2022/11/04 06:15:18;;;;;;;1.35;0.57;;;19.70;80.70;;;;;;10497748;28;20561;-26
2022/11/04 06:20:22;;;;;;;1.25;0.60;;;19.80;80.70;;;;;;10490405;28;20127;-25
2022/11/04 06:25:24;;;;;;;3.28;0.90;;;19.80;80.60;;;;;;10493809;28;20083;-25
2022/11/04 06:30:25;;;;;;;1.85;0.77;;;19.80;80.60;;;;;;10482975;28;20090;-26
2022/11/04 06:35:29;;;;;;;1.98;0.57;;;19.80;80.60;;;;;;10490599;28;20458;-24
2022/11/04 06:40:31;;;;;;;1.60;0.70;;;19.90;80.20;;;;;;10504357;28;20044;-26
2022/11/04 06:45:33;;;;;;;2.47;0.77;;;19.80;80.70;;;;;;10493385;28;20045;-26
2022/11/04 06:50:36;;;;;;;3.78;1.23;;;19.80;80.70;;;;;;10488585;28;20040;-28
2022/11/04 06:55:38;;;;;;;2.33;0.90;;;19.80;81.60;;;;;;10481173;28;20626;-26
2022/11/04 07:00:40;;;;;;;4.00;0.60;;;19.80;80.90;;;;;;10503337;28;20045;-25
2022/11/04 07:15:27;;;;;;;2.15;0.68;;;19.80;80.70;;;;;;10518666;27;1476997;-26
2022/11/04 07:20:29;;;;;;;2.45;1.13;;;19.90;81.30;;;;;;10567628;28;20484;-26
2022/11/04 07:25:31;;;;;;;3.80;0.85;;;19.80;82.10;;;;;;10567455;28;20066;-30
2022/11/04 07:30:34;;;;;;;2.55;0.98;;;19.80;82.20;;;;;;10566218;28;20067;-30
2022/11/04 07:35:37;;;;;;;2.17;0.80;;;19.70;82.60;;;;;;10566301;28;20059;-26
2022/11/04 07:40:39;;;;;;;4.03;0.60;;;19.70;82.50;;;;;;10570601;28;20050;-26
2022/11/04 07:45:43;;;;;;;1.77;0.60;;;19.70;82.30;;;;;;10559929;28;20501;-29
2022/11/04 07:50:44;;;;;;;2.25;0.98;;;19.80;82.20;;;;;;10565799;28;20051;-28
2022/11/04 07:55:49;;;;;;;2.90;0.65;;;19.70;82.70;;;;;;10561988;28;20391;-28
2022/11/04 08:00:58;;;;;;;4.90;0.80;;;19.80;82.10;;;;;;10563042;28;20071;-27
2022/11/04 08:06:02;;;;;;;4.10;1.17;;;19.80;82.10;;;;;;10571806;28;20075;-28
2022/11/04 08:11:06;;;;;;;2.67;0.70;;;19.70;82.50;;;;;;10567257;28;20113;-28
2022/11/04 08:16:13;;;;;;;1.02;0.60;;;19.80;81.90;;;;;;10567167;28;20071;-27
2022/11/04 08:21:15;;;;;;;4.05;1.00;;;19.80;81.90;;;;;;10567689;28;20048;-25
2022/11/04 08:26:19;;;;;;;4.20;0.82;;;20.00;81.10;;;;;;10546559;28;20044;-29
2022/11/04 08:31:25;;;;;;;2.92;0.70;;;20.00;80.70;;;;;;10539504;28;20044;-27
2022/11/04 08:36:29;;;;;;;2.60;1.00;;;20.00;80.20;;;;;;10538123;28;20036;-27
2022/11/04 08:41:33;;;;;;;4.95;1.00;;;20.00;79.80;;;;;;10538415;28;20476;-26
2022/11/04 08:46:38;;;;;;;1.20;0.60;;;20.10;79.80;;;;;;10540105;28;20453;-26
2022/11/04 08:51:43;;;;;;;4.88;0.98;;;20.10;79.50;;;;;;10538814;28;20134;-26
2022/11/04 08:56:45;;;;;;;2.35;0.73;;;20.10;79.30;;;;;;10538581;28;20052;-26
2022/11/04 09:01:48;;;;;;;1.73;0.80;;;20.10;79.10;;;;;;10535922;28;20054;-27
2022/11/04 09:06:51;;;;;;;2.63;0.88;;;20.10;78.90;;;;;;10540880;28;20055;-25
2022/11/04 09:11:53;;;;;;;8.73;1.23;;;20.10;78.60;;;;;;10545392;28;20067;-26
2022/11/04 09:16:57;;;;;;;3.75;1.20;;;20.10;78.50;;;;;;10536407;28;20713;-26
2022/11/04 09:21:59;;;;;;;3.30;1.50;;;20.00;78.80;;;;;;10536526;28;20460;-27
2022/11/04 09:27:01;;;;;;;3.53;1.13;;;20.00;78.70;;;;;;10537155;28;20044;-24
2022/11/04 09:32:05;;;;;;;5.18;0.80;;;20.10;78.40;;;;;;10528745;28;20481;-28
2022/11/04 09:37:07;;;;;;;6.93;1.40;;;20.00;78.60;;;;;;10534682;28;20047;-28
2022/11/04 09:42:24;;;;;;;1.63;0.73;;;20.00;78.30;;;;;;10534047;28;20464;-27
2022/11/04 09:47:30;;;;;;;2.13;0.80;;;20.00;78.20;;;;;;10535741;28;20105;-27
2022/11/04 09:52:37;;;;;;;1.48;0.85;;;20.00;78.20;;;;;;10534883;28;20481;-26
2022/11/04 09:57:39;;;;;;;3.20;1.20;;;20.00;78.00;;;;;;10534892;28;20040;-27
2022/11/04 10:02:51;;;;;;;4.45;0.82;;;18.90;85.30;;;;;;10540248;28;20121;-29
2022/11/04 10:08:16;;;;;;;2.50;0.90;;;19.90;78.80;;;;;;10538237;28;20051;-26
2022/11/04 10:13:25;;;;;;;2.72;1.15;;;20.00;78.00;;;;;;10547220;28;20070;-27
2022/11/04 10:18:53;;;;;;;1.73;0.73;;;20.00;77.50;;;;;;10538970;28;20051;-27
2022/11/04 10:24:06;;;;;;;3.80;0.80;;;20.00;77.30;;;;;;10531659;28;20156;-27
2022/11/04 10:29:14;;;;;;;2.40;0.75;;;20.10;77.10;;;;;;10533911;28;20055;-26
2022/11/04 10:34:27;;;;;;;2.47;0.70;;;20.10;76.70;;;;;;10531565;28;20070;-24
2022/11/04 10:39:32;;;;;;;2.10;0.77;;;19.50;78.80;;;;;;10529015;28;20066;-26
2022/11/04 10:44:36;;;;;;;2.65;0.85;;;20.00;77.10;;;;;;10532422;28;20105;-29
2022/11/04 10:50:04;;;;;;;2.42;0.60;;;19.40;81.20;;;;;;10533530;28;20076;-26
2022/11/04 10:55:15;;;;;;;2.13;0.70;;;20.00;77.10;;;;;;10525824;28;20456;-28
2022/11/04 11:00:37;;;;;;;3.33;1.25;;;20.00;76.50;;;;;;10533160;28;20109;-26
2022/11/04 11:05:40;;;;;;;0.82;0.52;;;20.00;76.30;;;;;;10527229;28;20043;-26
2022/11/04 11:10:51;;;;;;;2.92;0.52;;;20.00;75.90;;;;;;10531242;28;20536;-28
2022/11/04 11:16:06;;;;;;;1.07;0.57;;;19.80;75.00;;;;;;10536983;28;20116;-27
2022/11/04 11:21:12;;;;;;;7.43;0.85;;;20.00;76.40;;;;;;10539492;28;20473;-26
2022/11/04 11:26:17;;;;;;;1.65;0.57;;;19.40;80.10;;;;;;10530461;28;20138;-27
2022/11/04 11:31:25;;;;;;;3.08;0.60;;;19.70;77.50;;;;;;10530049;28;20384;-25
2022/11/04 11:36:31;;;;;;;5.60;0.73;;;19.20;80.30;;;;;;10529442;28;20048;-26
2022/11/04 11:41:35;;;;;;;1.45;0.60;;;18.10;82.10;;;;;;10538676;28;20375;-26
2022/11/04 11:46:40;;;;;;;2.15;0.40;;;19.30;80.80;;;;;;10534293;28;20485;-27
2022/11/04 11:51:44;;;;;;;2.30;0.38;;;18.40;82.00;;;;;;10533370;28;20082;-31
2022/11/04 11:56:49;;;;;;;2.08;0.60;;;19.80;76.20;;;;;;10524103;28;20790;-26
2022/11/04 12:02:00;;;;;;;1.70;0.60;;;20.00;75.10;;;;;;10549795;28;20139;-27
2022/11/04 12:07:12;;;;;;;3.47;0.40;;;20.00;74.90;;;;;;10541724;28;20056;-26
2022/11/04 12:12:34;;;;;;;2.03;0.40;;;20.00;74.60;;;;;;10532278;28;20084;-25
2022/11/04 12:17:47;;;;;;;1.25;0.30;;;20.00;74.60;;;;;;10525043;28;20075;-28
2022/11/04 12:22:58;;;;;;;2.53;0.47;;;20.00;74.20;;;;;;10533927;28;20051;-24
2022/11/04 12:28:11;;;;;;;2.83;0.63;;;20.00;74.10;;;;;;10533374;28;20090;-26
2022/11/04 12:33:25;;;;;;;4.05;0.60;;;20.00;74.20;;;;;;10541352;28;20056;-27
2022/11/04 12:38:49;;;;;;;2.28;0.40;;;16.40;84.80;;;;;;10534564;28;20053;-26
2022/11/04 12:43:57;;;;;;;2.10;0.50;;;19.20;81.90;;;;;;10534548;28;20101;-26
2022/11/04 12:49:28;;;;;;;2.20;0.55;;;19.80;76.80;;;;;;10522681;28;20047;-26
2022/11/04 12:54:56;;;;;;;3.63;0.35;;;19.90;75.40;;;;;;10536555;28;20050;-26
2022/11/04 13:00:10;;;;;;;2.03;0.50;;;20.00;74.80;;;;;;10538150;28;20102;-26
2022/11/04 13:05:27;;;;;;;8.45;0.80;;;20.00;74.40;;;;;;10531826;28;20553;-30
2022/11/04 13:10:39;;;;;;;7.35;0.35;;;20.80;73.10;;;;;;10535437;28;20063;-24
2022/11/04 13:15:46;;;;;;;2.22;0.82;;;21.00;70.10;;;;;;10529161;28;20048;-26
2022/11/04 13:20:55;;;;;;;1.27;0.40;;;21.00;68.60;;;;;;10536223;28;20046;-25
2022/11/04 13:26:00;;;;;;;5.30;0.68;;;20.90;70.10;;;;;;10535761;28;20048;-24
2022/11/04 13:31:07;;;;;;;1.83;0.50;;;20.90;70.10;;;;;;10528618;28;20040;-23
2022/11/04 13:36:22;;;;;;;1.92;0.50;;;21.10;70.40;;;;;;10545278;28;20125;-26
2022/11/04 13:41:57;;;;;;;7.22;0.70;;;21.20;72.30;;;;;;10535892;28;20505;-26
2022/11/04 13:47:04;;;;;;;2.78;0.57;;;21.40;71.40;;;;;;10527787;28;20122;-24
2022/11/04 13:52:08;;;;;;;2.58;0.65;;;21.40;69.30;;;;;;10523405;28;20412;-23
2022/11/04 13:57:16;;;;;;;1.67;0.47;;;21.20;69.40;;;;;;10523770;28;20452;-23
2022/11/04 14:02:35;;;;;;;1.70;0.68;;;21.30;69.50;;;;;;10528562;28;20057;-22
2022/11/04 14:08:10;;;;;;;4.03;1.02;;;21.30;69.70;;;;;;10532964;28;20093;-25
2022/11/04 14:13:45;;;;;;;1.17;0.50;;;21.20;69.80;;;;;;10528954;28;20052;-24
2022/11/04 14:18:48;;;;;;;3.13;1.48;;;21.30;69.70;;;;;;10534478;28;20048;-25
2022/11/04 14:23:53;;;;;;;2.45;0.98;;;21.30;69.70;;;;;;10532506;28;20108;-23
2022/11/04 14:29:05;;;;;;;3.10;0.60;;;21.30;69.60;;;;;;10538468;28;20100;-24
2022/11/04 14:34:22;;;;;;;1.65;0.68;;;21.40;69.50;;;;;;10536430;28;20112;-24
2022/11/04 14:39:29;;;;;;;1.10;0.60;;;21.40;69.50;;;;;;10543745;28;20228;-24
2022/11/04 14:44:36;;;;;;;1.42;0.50;;;21.30;69.50;;;;;;10514464;28;20070;-24
2022/11/04 14:49:43;;;;;;;1.40;0.60;;;21.40;69.40;;;;;;10524395;28;20056;-25
2022/11/04 14:54:46;;;;;;;2.30;0.70;;;21.40;69.30;;;;;;10524797;28;20203;-24
2022/11/04 14:59:51;;;;;;;3.35;0.63;;;21.30;69.10;;;;;;10520589;28;20040;-23
2022/11/04 15:04:57;;;;;;;6.28;0.70;;;21.30;68.90;;;;;;10531517;28;20495;-24
2022/11/04 15:10:00;;;;;;;3.53;0.88;;;21.30;68.90;;;;;;10527405;28;20106;-24
2022/11/04 15:15:28;;;;;;;2.20;0.60;;;21.40;68.90;;;;;;10535265;28;21524;-23
2022/11/04 15:20:31;;;;;;;2.72;0.60;;;21.40;68.70;;;;;;10532916;28;20082;-25
2022/11/04 15:25:33;;;;;;;1.70;0.65;;;21.40;68.80;;;;;;10534964;28;20155;-23
2022/11/04 15:30:37;;;;;;;2.00;0.68;;;21.50;68.60;;;;;;10526328;28;20075;-22
2022/11/04 15:35:42;;;;;;;3.88;0.82;;;20.70;73.00;;;;;;10533767;28;20079;-24
2022/11/04 15:40:45;;;;;;;1.85;0.60;;;19.80;75.40;;;;;;10532233;28;20043;-24
2022/11/04 15:45:52;;;;;;;2.38;0.52;;;20.90;72.60;;;;;;10537458;28;20040;-24
2022/11/04 15:51:14;;;;;;;1.98;0.73;;;21.10;71.70;;;;;;10549771;28;20079;-26
2022/11/04 15:56:18;;;;;;;2.63;0.73;;;21.30;69.80;;;;;;10534128;28;20059;-24
2022/11/04 16:01:22;;;;;;;3.17;0.80;;;21.40;69.80;;;;;;10538942;28;20132;-24
2022/11/04 16:06:36;;;;;;;4.72;0.75;;;21.10;70.90;;;;;;10537423;28;20480;-28
2022/11/04 16:11:39;;;;;;;2.88;0.77;;;21.00;71.40;;;;;;10526302;28;20059;-27
2022/11/04 16:16:48;;;;;;;6.38;1.25;;;21.30;69.90;;;;;;10532796;28;20045;-26
2022/11/04 16:21:59;;;;;;;4.68;0.50;;;21.20;68.70;;;;;;10535155;28;20051;-25
2022/11/04 16:27:01;;;;;;;6.63;0.93;;;21.30;69.70;;;;;;10540441;28;20151;-23
2022/11/04 16:32:17;;;;;;;2.38;0.70;;;21.50;68.70;;;;;;10538705;28;20048;-24
2022/11/04 16:37:19;;;;;;;4.22;0.75;;;21.50;68.00;;;;;;10534841;28;20072;-23
2022/11/04 16:42:22;;;;;;;3.40;0.77;;;21.40;68.40;;;;;;10539256;28;20105;-24
2022/11/04 16:47:27;;;;;;;5.18;0.63;;;21.20;69.40;;;;;;10534050;28;20545;-24
2022/11/04 16:52:30;;;;;;;5.47;0.60;;;20.90;71.90;;;;;;10533068;28;20047;-24
2022/11/04 16:57:33;;;;;;;6.55;0.70;;;21.20;67.80;;;;;;10535981;28;20040;-24
2022/11/04 17:02:39;;;;;;;4.45;0.90;;;21.30;68.00;;;;;;10531437;28;20067;-25
2022/11/04 17:07:41;;;;;;;2.70;0.70;;;20.30;66.60;;;;;;10539709;28;20052;-24
2022/11/04 17:12:45;;;;;;;2.40;0.52;;;19.60;77.40;;;;;;10535352;28;20067;-24
2022/11/04 17:17:48;;;;;;;4.05;0.70;;;20.70;72.50;;;;;;10533828;28;20083;-27
2022/11/04 17:22:51;;;;;;;2.88;0.90;;;21.10;69.40;;;;;;10535382;28;20097;-28
2022/11/04 17:27:54;;;;;;;9.93;1.50;;;21.10;69.60;;;;;;10524079;28;20508;-24
2022/11/04 17:32:57;;;;;;;17.75;2.35;;;20.50;73.60;;;;;;10532656;28;20769;-25
2022/11/04 17:37:59;;;;;;;14.52;2.20;;;19.70;76.20;;;;;;10541809;28;20078;-24
2022/11/04 17:48:22;;;;;;;19.85;4.15;;;21.00;71.20;;;;;;10524704;28;20094;-24
2022/11/04 17:53:24;;;;;;;21.83;4.13;;;21.30;69.50;;;;;;10534551;28;20146;-24
2022/11/04 17:58:29;;;;;;;26.58;4.32;;;20.90;71.40;;;;;;10524013;28;20132;-23
2022/11/04 18:03:33;;;;;;;19.10;4.25;;;20.80;72.10;;;;;;10526024;28;20137;-24
2022/11/04 18:08:35;;;;;;;17.90;3.55;;;21.10;71.30;;;;;;10532481;28;20044;-25
2022/11/04 18:13:37;;;;;;;9.77;2.75;;;20.80;72.10;;;;;;10533699;28;20056;-24
2022/11/04 18:18:41;;;;;;;;;;;20.80;73.20;;;;;;10534806;28;20469;-24
2022/11/04 18:23:43;;;;;;;14.32;3.13;;;20.80;72.90;;;;;;10530150;28;19967;-25
2022/11/04 18:28:45;;;;;;;4.78;0.95;;;20.60;73.60;;;;;;10532969;28;20051;-24
2022/11/04 18:33:48;;;;;;;10.32;2.00;;;16.60;73.20;;;;;;10533968;28;20146;-26
2022/11/04 18:38:50;;;;;;;13.80;2.15;;;14.60;94.90;;;;;;10531899;28;20067;-23
2022/11/04 18:43:52;;;;;;;13.03;4.33;;;14.10;99.90;;;;;;10531430;28;20044;-25
2022/11/04 18:48:55;;;;;;;13.47;3.97;;;17.10;95.80;;;;;;10531261;28;20068;-25
2022/11/04 18:53:57;;;;;;;12.10;2.97;;;18.60;89.40;;;;;;10533830;28;20573;-25
2022/11/04 18:59:00;;;;;;;8.75;3.28;;;17.80;93.20;;;;;;10530324;28;20067;-24
2022/11/04 19:04:04;;;;;;;8.85;3.53;;;20.00;80.20;;;;;;10528493;28;20382;-25
2022/11/04 19:09:08;;;;;;;13.60;3.15;;;20.40;75.90;;;;;;10531140;28;20067;-23
2022/11/04 19:14:14;;;;;;;8.27;3.05;;;20.50;74.70;;;;;;10544935;28;20120;-24
2022/11/04 19:19:17;;;;;;;8.40;2.58;;;20.70;74.00;;;;;;10529723;28;20561;-24
2022/11/04 19:24:19;;;;;;;9.13;1.67;;;19.30;80.60;;;;;;10534376;28;20040;-27
2022/11/04 19:29:21;;;;;;;9.55;2.05;;;17.20;73.60;;;;;;10528318;28;20464;-25
2022/11/04 19:34:24;;;;;;;3.72;1.30;;;16.50;95.40;;;;;;10531417;28;20067;-25
2022/11/04 19:39:26;;;;;;;11.60;3.67;;;13.60;95.70;;;;;;10529100;28;20570;-24
2022/11/04 19:44:28;;;;;;;8.60;0.82;;;15.00;98.00;;;;;;10531631;28;20048;-25
2022/11/04 19:49:31;;;;;;;14.48;4.43;;;14.50;96.90;;;;;;10539442;28;20052;-26
2022/11/04 19:54:34;;;;;;;7.65;2.60;;;15.90;91.90;;;;;;10527896;28;20044;-25
2022/11/04 19:59:36;;;;;;;7.30;2.85;;;17.30;94.30;;;;;;10525326;28;20048;-25
2022/11/04 20:04:40;;;;;;;;;;;18.30;91.00;;;;;;10532543;28;20410;-24
2022/11/04 20:09:42;;;;;;;9.63;1.75;;;18.80;87.80;;;;;;10529496;28;19924;-24
2022/11/04 20:14:44;;;;;;;5.97;2.10;;;17.10;91.70;;;;;;10522497;28;20488;-25
2022/11/04 20:19:47;;;;;;;5.57;1.95;;;16.60;96.60;;;;;;10521484;28;20680;-24
2022/11/04 20:24:49;;;;;;;9.52;2.75;;;16.30;93.60;;;;;;10530794;28;20794;-25
2022/11/04 20:29:51;;;;;;;10.20;3.60;;;16.60;92.40;;;;;;10541330;28;20040;-25
2022/11/04 20:34:55;;;;;;;7.18;2.20;;;16.00;98.50;;;;;;10532695;28;20501;-25
2022/11/04 20:39:57;;;;;;;6.07;1.17;;;16.20;97.70;;;;;;10532429;28;20043;-26
2022/11/04 20:44:59;;;;;;;9.70;1.27;;;14.80;92.40;;;;;;10531607;28;20140;-25
2022/11/04 20:50:02;;;;;;;12.27;1.48;;;15.30;93.10;;;;;;10538162;28;20154;-25
2022/11/04 20:55:04;;;;;;;8.00;1.80;;;15.80;99.40;;;;;;10536506;28;20424;-24
2022/11/04 21:00:08;;;;;;;7.43;1.23;;;16.40;94.30;;;;;;10533141;28;20070;-23
2022/11/04 21:05:11;;;;;;;11.70;2.45;;;14.70;93.50;;;;;;10524005;28;20048;-25
2022/11/04 21:10:13;;;;;;;8.30;1.20;;;16.70;96.40;;;;;;10522819;28;20089;-25
2022/11/04 21:20:36;;;;;;;14.65;2.47;;;16.30;97.30;;;;;;10532598;28;20523;-25
2022/11/04 21:25:42;;;;;;;10.68;1.63;;;17.20;94.30;;;;;;10529487;28;20566;-24
2022/11/04 21:30:48;;;;;;;5.95;1.73;;;16.90;77.40;;;;;;10532949;28;20534;-23
2022/11/04 21:35:51;;;;;;;6.82;1.98;;;16.80;94.00;;;;;;10546998;28;20160;-25
2022/11/04 21:40:53;;;;;;;8.60;2.28;;;14.90;97.40;;;;;;10526659;28;20079;-27
2022/11/04 21:46:01;;;;;;;7.93;1.50;;;16.80;94.00;;;;;;10530958;28;20145;-27
2022/11/04 21:51:07;;;;;;;15.30;1.48;;;17.40;93.50;;;;;;10532291;28;20050;-24
2022/11/04 21:56:11;;;;;;;5.95;1.00;;;15.70;97.00;;;;;;10526605;28;20044;-25
2022/11/04 22:01:16;;;;;;;5.90;1.27;;;16.80;94.20;;;;;;10534976;28;20520;-24
2022/11/04 22:06:19;;;;;;;9.40;1.17;;;17.10;78.60;;;;;;10534554;28;20044;-24
2022/11/04 22:11:24;;;;;;;6.18;1.20;;;16.90;94.70;;;;;;10534425;28;20048;-24
2022/11/04 22:16:27;;;;;;;3.42;0.85;;;15.20;84.80;;;;;;10538693;28;20044;-25
2022/11/04 22:21:31;;;;;;;11.57;2.05;;;15.50;76.90;;;;;;10535923;28;20044;-24
2022/11/04 22:26:33;;;;;;;6.72;1.00;;;17.10;73.10;;;;;;10535890;28;20052;-26
2022/11/04 22:31:37;;;;;;;6.28;0.95;;;17.40;79.60;;;;;;10530974;28;20040;-26
2022/11/04 22:36:41;;;;;;;6.82;1.70;;;17.00;91.70;;;;;;10525604;28;20044;-25
2022/11/04 22:41:42;;;;;;;9.48;1.38;;;17.60;90.00;;;;;;10530072;28;20562;-25
2022/11/04 22:46:44;;;;;;;14.48;1.45;;;18.10;90.10;;;;;;10512273;28;20066;-25
2022/11/04 22:51:48;;;;;;;9.25;1.08;;;18.00;90.30;;;;;;10524847;28;20113;-24
2022/11/04 22:56:50;;;;;;;5.10;1.10;;;19.10;82.60;;;;;;10533498;28;20207;-25
2022/11/04 23:01:52;;;;;;;5.45;1.40;;;18.60;86.20;;;;;;10535818;28;20048;-26
2022/11/04 23:06:55;;;;;;;6.32;1.40;;;18.90;84.10;;;;;;10535208;28;20051;-25
2022/11/04 23:38:45;;;;;;;4.28;0.88;;;19.10;78.50;;;;;;10531909;28;20081;-25
2022/11/04 23:43:47;;;;;;;6.40;1.10;;;19.60;77.50;;;;;;10533244;28;20076;-25
